createdAt,value
2023-03-17T00:01:55.219Z,8.88
2023-03-17T00:06:52.947Z,6.97
2023-03-17T00:09:22.618Z,7.07
2023-03-17T00:11:51.010Z,8.15
2023-03-17T00:14:20.063Z,6.75
2023-03-17T00:16:50.756Z,7.18
2023-03-17T00:19:29.889Z,5.97
2023-03-17T00:21:59.100Z,7.03
2023-03-17T00:24:27.481Z,5.65
2023-03-17T00:26:55.783Z,5.05
2023-03-17T00:29:25.492Z,8.50
2023-03-17T00:31:54.596Z,6.97
2023-03-17T00:34:25.509Z,5.70
2023-03-17T00:36:53.793Z,6.20
2023-03-17T00:39:25.430Z,5.60
2023-03-17T00:41:55.988Z,6.65
2023-03-17T00:44:24.274Z,7.00
2023-03-17T00:46:52.664Z,6.05
2023-03-17T00:49:23.944Z,6.25
2023-03-17T00:51:54.268Z,7.65
2023-03-17T00:54:23.624Z,5.07
2023-03-17T00:56:53.290Z,6.70
2023-03-17T00:59:27.389Z,7.15
2023-03-17T01:01:56.520Z,5.78
2023-03-17T01:04:25.470Z,5.90
2023-03-17T01:06:55.613Z,6.70
2023-03-17T01:09:27.515Z,5.72
2023-03-17T01:11:56.642Z,5.95
2023-03-17T01:14:25.905Z,5.57
2023-03-17T01:16:55.239Z,6.43
2023-03-17T01:19:24.128Z,5.30
2023-03-17T01:21:52.455Z,4.30
2023-03-17T01:24:22.223Z,6.32
2023-03-17T01:26:50.902Z,5.97
2023-03-17T01:29:19.251Z,6.38
2023-03-17T01:31:47.848Z,5.70
2023-03-17T01:34:16.512Z,4.95
2023-03-17T01:36:44.960Z,5.70
2023-03-17T01:39:13.364Z,5.85
2023-03-17T01:41:43.226Z,5.72
2023-03-17T01:44:16.984Z,7.13
2023-03-17T01:46:45.994Z,7.05
2023-03-17T01:49:19.517Z,6.00
2023-03-17T01:52:01.281Z,5.05
2023-03-17T01:59:39.571Z,6.35
2023-03-17T02:02:11.963Z,4.53
2023-03-17T02:04:40.520Z,6.63
2023-03-17T02:07:10.180Z,6.05
2023-03-17T02:09:43.028Z,4.47
2023-03-17T02:12:13.966Z,5.32
2023-03-17T02:14:42.780Z,4.07
2023-03-17T02:17:11.078Z,6.47
2023-03-17T02:19:39.464Z,5.47
2023-03-17T02:22:09.358Z,5.15
2023-03-17T02:24:40.514Z,5.72
2023-03-17T02:27:13.637Z,5.18
2023-03-17T02:29:42.667Z,4.93
2023-03-17T02:32:11.217Z,5.18
2023-03-17T02:34:39.585Z,5.05
2023-03-17T02:37:09.554Z,6.18
2023-03-17T02:39:38.034Z,4.53
2023-03-17T02:42:07.587Z,7.40
2023-03-17T02:44:36.160Z,5.90
2023-03-17T02:47:06.540Z,5.63
2023-03-17T02:49:35.867Z,5.00
2023-03-17T02:52:04.883Z,5.75
2023-03-17T02:54:34.740Z,5.28
2023-03-17T02:57:03.139Z,5.25
2023-03-17T02:59:32.037Z,4.97
2023-03-17T03:02:01.022Z,5.60
2023-03-17T03:04:29.669Z,6.18
2023-03-17T03:06:58.070Z,6.38
2023-03-17T03:09:26.561Z,4.70
2023-03-17T03:11:56.280Z,6.32
2023-03-17T03:14:25.158Z,5.70
2023-03-17T03:16:53.564Z,6.57
2023-03-17T03:19:22.354Z,6.63
2023-03-17T03:21:51.218Z,6.38
2023-03-17T03:24:19.606Z,5.65
2023-03-17T03:26:48.272Z,5.65
2023-03-17T03:29:17.971Z,5.43
2023-03-17T03:31:48.276Z,4.40
2023-03-17T03:34:16.920Z,7.43
2023-03-17T03:36:45.313Z,5.15
2023-03-17T03:39:14.545Z,5.40
2023-03-17T03:41:44.826Z,4.97
2023-03-17T03:44:13.091Z,5.43
2023-03-17T03:46:43.146Z,5.15
2023-03-17T03:49:11.501Z,5.60
2023-03-17T03:51:39.702Z,7.25
2023-03-17T03:54:08.109Z,5.30
2023-03-17T03:56:36.327Z,6.10
2023-03-17T03:59:04.802Z,5.03
2023-03-17T04:01:33.057Z,5.53
2023-03-17T04:04:03.095Z,5.18
2023-03-17T04:06:31.394Z,5.50
2023-03-17T04:08:59.647Z,4.57
2023-03-17T04:11:28.003Z,6.32
2023-03-17T04:13:56.290Z,4.80
2023-03-17T04:16:24.507Z,5.15
2023-03-17T04:18:52.784Z,6.82
2023-03-17T04:21:22.922Z,5.97
2023-03-17T04:23:51.270Z,6.93
2023-03-17T04:26:19.577Z,5.82
2023-03-17T04:28:47.865Z,7.30
2023-03-17T04:31:17.090Z,6.15
2023-03-17T04:33:45.698Z,5.20
2023-03-17T04:36:19.351Z,5.78
2023-03-17T04:38:49.103Z,6.40
2023-03-17T04:41:17.861Z,6.57
2023-03-17T04:43:46.312Z,5.43
2023-03-17T04:46:14.990Z,7.18
2023-03-17T04:48:43.864Z,4.38
2023-03-17T04:51:12.154Z,4.72
2023-03-17T04:53:40.690Z,5.40
2023-03-17T04:56:10.687Z,5.47
2023-03-17T04:58:39.528Z,4.63
2023-03-17T05:01:08.826Z,6.28
2023-03-17T05:03:37.401Z,4.72
2023-03-17T05:06:07.258Z,6.53
2023-03-17T05:08:35.606Z,6.43
2023-03-17T05:11:03.844Z,5.63
2023-03-17T05:13:33.456Z,5.43
2023-03-17T05:16:02.264Z,5.65
2023-03-17T05:18:31.010Z,5.93
2023-03-17T05:20:59.314Z,5.53
2023-03-17T05:23:27.884Z,5.00
2023-03-17T05:25:56.356Z,5.97
2023-03-17T05:28:24.894Z,5.13
2023-03-17T05:30:55.342Z,6.95
2023-03-17T05:33:24.206Z,6.95
2023-03-17T05:35:52.525Z,5.75
2023-03-17T05:38:20.981Z,6.07
2023-03-17T05:40:53.023Z,4.03
2023-03-17T05:43:21.814Z,5.47
2023-03-17T05:45:50.603Z,6.05
2023-03-17T05:48:20.371Z,5.40
2023-03-17T05:50:48.762Z,6.85
2023-03-17T05:53:17.469Z,6.80
2023-03-17T05:55:46.108Z,6.97
2023-03-17T05:58:16.065Z,5.20
2023-03-17T06:00:45.233Z,5.68
2023-03-17T06:03:13.625Z,7.13
2023-03-17T06:05:43.665Z,5.95
2023-03-17T06:08:12.310Z,6.53
2023-03-17T06:10:41.315Z,6.07
2023-03-17T06:13:09.626Z,5.38
2023-03-17T06:15:38.045Z,5.75
2023-03-17T06:18:06.829Z,5.68
2023-03-17T06:20:36.695Z,4.75
2023-03-17T06:23:06.993Z,5.78
2023-03-17T06:25:35.951Z,5.30
2023-03-17T06:28:05.459Z,7.03
2023-03-17T06:30:34.847Z,5.93
2023-03-17T06:33:03.492Z,8.02
2023-03-17T06:35:33.413Z,5.88
2023-03-17T06:38:02.313Z,6.82
2023-03-17T06:40:34.060Z,5.95
2023-03-17T06:43:03.078Z,4.57
2023-03-17T06:45:33.315Z,6.32
2023-03-17T06:48:02.496Z,7.53
2023-03-17T06:50:30.870Z,5.18
2023-03-17T06:52:59.158Z,8.23
2023-03-17T06:55:27.482Z,5.47
2023-03-17T06:57:57.112Z,5.65
2023-03-17T07:00:25.626Z,6.72
2023-03-17T07:02:53.857Z,5.72
2023-03-17T07:05:22.860Z,7.05
2023-03-17T07:07:51.223Z,5.43
2023-03-17T07:10:20.343Z,8.18
2023-03-17T07:12:49.084Z,5.00
2023-03-17T07:15:18.897Z,6.95
2023-03-17T07:17:48.009Z,7.93
2023-03-17T07:20:16.741Z,5.75
2023-03-17T07:22:45.112Z,6.78
2023-03-17T07:25:13.551Z,9.23
2023-03-17T07:27:42.216Z,8.07
2023-03-17T07:30:12.881Z,6.43
2023-03-17T07:32:43.811Z,7.77
2023-03-17T07:35:12.232Z,5.40
2023-03-17T07:37:40.730Z,5.20
2023-03-17T07:40:10.320Z,6.57
2023-03-17T07:42:39.223Z,5.47
2023-03-17T07:45:08.816Z,6.80
2023-03-17T07:47:37.117Z,7.35
2023-03-17T07:50:07.812Z,5.25
2023-03-17T07:52:36.386Z,5.53
2023-03-17T07:55:04.873Z,5.95
2023-03-17T07:57:33.393Z,5.57
2023-03-17T08:00:01.691Z,5.43
2023-03-17T08:02:40.197Z,6.10
2023-03-17T08:05:11.698Z,6.22
2023-03-17T08:07:40.585Z,5.07
2023-03-17T08:10:10.203Z,4.10
2023-03-17T08:12:38.652Z,6.13
2023-03-17T08:15:09.384Z,7.90
2023-03-17T08:17:38.148Z,4.60
2023-03-17T08:20:07.324Z,5.85
2023-03-17T08:22:37.096Z,5.45
2023-03-17T08:25:05.780Z,5.78
2023-03-17T08:27:34.326Z,6.38
2023-03-17T08:30:03.199Z,7.38
2023-03-17T08:32:31.543Z,6.05
2023-03-17T08:35:00.500Z,6.03
2023-03-17T08:37:28.951Z,5.72
2023-03-17T08:39:59.092Z,8.00
2023-03-17T08:42:27.564Z,6.90
2023-03-17T08:44:55.927Z,5.40
2023-03-17T08:47:25.002Z,6.50
2023-03-17T08:49:53.350Z,5.25
2023-03-17T08:52:21.563Z,5.22
2023-03-17T08:54:49.994Z,8.18
2023-03-17T08:57:19.817Z,10.25
2023-03-17T08:59:48.691Z,6.55
2023-03-17T09:02:17.141Z,9.50
2023-03-17T09:04:45.529Z,4.60
2023-03-17T09:07:15.142Z,7.30
2023-03-17T09:09:43.532Z,5.75
2023-03-17T09:12:12.137Z,5.80
2023-03-17T09:14:44.189Z,4.10
2023-03-17T09:17:14.543Z,5.53
2023-03-17T09:19:43.982Z,4.93
2023-03-17T09:22:15.144Z,4.72
2023-03-17T09:24:44.371Z,6.45
2023-03-17T09:27:12.913Z,5.72
2023-03-17T09:29:43.300Z,3.50
2023-03-17T09:32:12.102Z,6.05
2023-03-17T09:34:42.138Z,5.70
2023-03-17T09:37:10.937Z,3.45
2023-03-17T09:39:39.253Z,3.25
2023-03-17T09:42:18.626Z,3.58
2023-03-17T09:45:07.078Z,5.43
2023-03-17T09:47:52.724Z,5.05
2023-03-17T09:50:26.176Z,4.15
2023-03-17T09:52:58.489Z,4.32
2023-03-17T09:55:30.037Z,4.32
2023-03-17T09:58:00.844Z,5.63
2023-03-17T10:00:31.311Z,3.85
2023-03-17T10:03:01.599Z,3.50
2023-03-17T10:05:31.950Z,3.53
2023-03-17T10:08:19.023Z,4.15
2023-03-17T10:11:00.734Z,4.90
2023-03-17T10:13:43.177Z,3.90
2023-03-17T10:16:17.676Z,3.13
2023-03-17T10:18:51.092Z,3.28
2023-03-17T10:21:22.548Z,5.32
2023-03-17T10:23:51.429Z,4.28
2023-03-17T10:26:28.755Z,4.95
2023-03-17T10:28:57.424Z,2.83
2023-03-17T10:31:33.289Z,3.03
2023-03-17T10:34:13.777Z,3.10
2023-03-17T10:36:44.553Z,3.13
2023-03-17T10:39:15.580Z,3.85
2023-03-17T10:41:53.674Z,3.70
2023-03-17T10:44:29.519Z,2.80
2023-03-17T10:46:59.359Z,3.88
2023-03-17T10:49:27.676Z,2.83
2023-03-17T10:51:56.174Z,6.30
2023-03-17T10:54:26.572Z,3.63
2023-03-17T10:57:02.313Z,2.92
2023-03-17T10:59:33.144Z,3.53
2023-03-17T11:02:09.462Z,4.75
2023-03-17T11:04:41.863Z,4.20
2023-03-17T11:07:16.742Z,3.53
2023-03-17T11:09:45.265Z,3.42
2023-03-17T11:12:25.702Z,2.88
2023-03-17T11:15:00.259Z,2.38
2023-03-17T11:17:48.890Z,3.42
2023-03-17T11:20:45.384Z,3.20
2023-03-17T11:23:27.394Z,3.35
2023-03-17T11:26:06.689Z,3.78
2023-03-17T11:28:41.200Z,3.05
2023-03-17T11:31:15.510Z,3.22
2023-03-17T11:33:55.043Z,3.45
2023-03-17T11:36:39.979Z,3.58
2023-03-17T11:39:14.949Z,4.65
2023-03-17T11:41:52.290Z,2.42
2023-03-17T11:44:49.840Z,3.33
2023-03-17T11:47:35.524Z,2.80
2023-03-17T11:50:17.680Z,3.35
2023-03-17T11:52:57.909Z,2.95
2023-03-17T11:55:31.188Z,4.80
2023-03-17T11:58:02.627Z,2.30
2023-03-17T12:00:34.799Z,3.33
2023-03-17T12:03:16.064Z,3.90
2023-03-17T12:05:50.209Z,2.58
2023-03-17T12:08:25.581Z,3.58
2023-03-17T12:10:56.535Z,2.67
2023-03-17T12:13:30.462Z,2.72
2023-03-17T12:16:05.570Z,3.20
2023-03-17T12:18:38.292Z,3.35
2023-03-17T12:21:13.988Z,3.38
2023-03-17T12:23:50.058Z,5.93
2023-03-17T12:26:21.219Z,4.43
2023-03-17T12:28:55.663Z,3.45
2023-03-17T12:31:29.456Z,2.33
2023-03-17T12:34:06.554Z,2.92
2023-03-17T12:36:39.207Z,2.55
2023-03-17T12:39:10.686Z,2.47
2023-03-17T12:42:05.670Z,4.10
2023-03-17T12:45:02.027Z,3.38
2023-03-17T12:47:53.600Z,4.55
2023-03-17T12:51:05.945Z,4.00
2023-03-17T12:53:38.063Z,4.43
2023-03-17T12:56:15.402Z,3.88
2023-03-17T12:58:46.653Z,3.38
2023-03-17T13:01:26.502Z,2.28
2023-03-17T13:04:03.154Z,2.58
2023-03-17T13:06:38.180Z,2.10
2023-03-17T13:09:37.796Z,3.33
2023-03-17T13:12:08.769Z,4.10
2023-03-17T13:14:43.632Z,4.27
2023-03-17T13:17:34.861Z,2.95
2023-03-17T13:20:15.988Z,5.13
2023-03-17T13:23:03.416Z,4.85
2023-03-17T13:25:36.006Z,5.18
2023-03-17T13:28:27.219Z,4.03
2023-03-17T13:31:11.462Z,6.60
2023-03-17T13:33:46.543Z,4.07
2023-03-17T13:36:31.683Z,4.53
2023-03-17T13:39:24.917Z,6.70
2023-03-17T13:42:15.707Z,4.90
2023-03-17T13:45:17.557Z,4.30
2023-03-17T13:47:47.465Z,7.00
2023-03-17T13:50:18.188Z,5.85
2023-03-17T13:52:49.720Z,4.77
2023-03-17T13:58:34.505Z,3.60
2023-03-17T14:01:07.305Z,5.78
2023-03-17T14:03:41.987Z,5.55
2023-03-17T14:06:13.543Z,5.30
2023-03-17T14:08:47.060Z,5.75
2023-03-17T14:11:24.026Z,6.65
2023-03-17T14:14:09.883Z,5.00
2023-03-17T14:16:45.514Z,5.00
2023-03-17T14:19:21.600Z,6.68
2023-03-17T14:21:50.148Z,6.30
2023-03-17T14:24:22.762Z,5.45
2023-03-17T14:26:52.328Z,6.90
2023-03-17T14:29:26.244Z,7.13
2023-03-17T14:32:04.173Z,8.90
2023-03-17T14:34:33.137Z,7.25
2023-03-17T14:37:06.157Z,9.07
2023-03-17T14:39:34.427Z,5.53
2023-03-17T14:42:04.135Z,6.07
2023-03-17T14:44:41.657Z,7.20
2023-03-17T14:47:19.249Z,6.75
2023-03-17T14:49:48.052Z,5.95
2023-03-17T14:52:21.679Z,8.63
2023-03-17T14:54:53.615Z,6.15
2023-03-17T14:57:27.148Z,5.50
2023-03-17T15:00:01.966Z,5.45
2023-03-17T15:02:34.391Z,6.38
2023-03-17T15:05:08.255Z,5.50
2023-03-17T15:07:41.506Z,5.05
2023-03-17T15:10:17.059Z,5.72
2023-03-17T15:12:48.293Z,7.00
2023-03-17T15:15:25.806Z,6.70
2023-03-17T15:17:56.909Z,5.95
2023-03-17T15:20:25.841Z,5.32
2023-03-17T15:22:59.210Z,4.47
2023-03-17T15:25:34.520Z,5.60
2023-03-17T15:28:03.465Z,5.43
2023-03-17T15:30:46.194Z,9.40
2023-03-17T15:33:22.245Z,7.13
2023-03-17T15:35:51.713Z,5.95
2023-03-17T15:38:19.998Z,6.13
2023-03-17T15:40:48.771Z,5.88
2023-03-17T15:43:18.203Z,6.30
2023-03-17T15:45:47.954Z,8.23
2023-03-17T15:48:21.246Z,9.18
2023-03-17T15:50:51.352Z,6.72
2023-03-17T15:53:20.038Z,5.68
2023-03-17T15:55:48.784Z,7.68
2023-03-17T15:58:17.032Z,6.30
2023-03-17T16:00:51.048Z,5.35
2023-03-17T16:03:25.587Z,8.73
2023-03-17T16:05:54.234Z,8.40
2023-03-17T16:08:23.184Z,6.22
2023-03-17T16:10:52.528Z,5.90
2023-03-17T16:13:21.016Z,6.20
2023-03-17T16:15:56.490Z,6.60
2023-03-17T16:18:32.298Z,6.95
2023-03-17T16:21:01.039Z,5.47
2023-03-17T16:23:32.518Z,7.93
2023-03-17T16:26:14.338Z,5.68
2023-03-17T16:28:45.357Z,9.48
2023-03-17T16:31:25.156Z,8.40
2023-03-17T16:33:54.716Z,90.22
2023-03-17T16:36:24.348Z,126.55
2023-03-17T16:38:54.305Z,243.95
2023-03-17T16:41:25.116Z,177.75
2023-03-17T16:43:58.648Z,181.90
2023-03-17T16:46:34.596Z,149.85
2023-03-17T16:49:04.234Z,340.60
2023-03-17T16:51:32.770Z,381.42
2023-03-17T16:54:01.093Z,173.80
2023-03-17T16:56:31.610Z,347.67
2023-03-17T16:59:00.169Z,176.07
2023-03-17T17:01:30.574Z,141.70
2023-03-17T17:03:59.012Z,117.30
2023-03-17T17:06:27.262Z,82.97
2023-03-17T17:08:55.548Z,59.95
2023-03-17T17:11:23.818Z,53.47
2023-03-17T17:13:52.256Z,197.80
2023-03-17T17:16:24.474Z,138.63
2023-03-17T17:18:54.282Z,227.93
2023-03-17T17:21:23.198Z,230.90
2023-03-17T17:23:53.136Z,175.60
2023-03-17T17:26:22.068Z,142.90
2023-03-17T17:28:50.822Z,120.43
2023-03-17T17:31:19.288Z,81.05
2023-03-17T17:33:47.847Z,104.28
2023-03-17T17:36:18.709Z,364.70
2023-03-17T17:38:47.074Z,121.47
2023-03-17T17:41:17.070Z,502.33
2023-03-17T17:43:46.374Z,455.45
2023-03-17T17:46:18.423Z,203.00
2023-03-17T17:48:47.016Z,192.50
2023-03-17T17:51:15.573Z,100.60
2023-03-17T17:53:45.883Z,78.30
2023-03-17T17:56:15.945Z,57.63
2023-03-17T17:58:44.780Z,46.58
2023-03-17T18:01:17.007Z,43.67
2023-03-17T18:03:45.392Z,36.33
2023-03-17T18:06:14.082Z,28.38
2023-03-17T18:08:43.552Z,28.60
2023-03-17T18:11:13.915Z,20.25
2023-03-17T18:13:42.257Z,18.77
2023-03-17T18:16:12.982Z,17.73
2023-03-17T18:18:43.307Z,15.82
2023-03-17T18:21:12.276Z,14.10
2023-03-17T18:23:46.796Z,17.00
2023-03-17T18:26:20.245Z,10.98
2023-03-17T18:28:49.285Z,11.52
2023-03-17T18:31:21.692Z,10.88
2023-03-17T18:33:51.801Z,11.75
2023-03-17T18:36:21.135Z,8.80
2023-03-17T18:38:49.517Z,8.75
2023-03-17T18:41:19.223Z,10.35
2023-03-17T18:43:47.656Z,11.02
2023-03-17T18:46:16.322Z,9.75
2023-03-17T18:48:44.646Z,8.80
2023-03-17T18:51:12.891Z,8.25
2023-03-17T18:53:41.137Z,6.72
2023-03-17T18:56:10.027Z,9.18
2023-03-17T18:58:39.842Z,9.07
2023-03-17T19:01:08.781Z,8.25
2023-03-17T19:03:37.112Z,10.10
2023-03-17T19:06:10.620Z,9.05
2023-03-17T19:08:38.882Z,8.63
2023-03-17T19:11:08.921Z,8.60
2023-03-17T19:13:37.723Z,7.90
2023-03-17T19:16:08.763Z,8.23
2023-03-17T19:18:41.741Z,7.97
2023-03-17T19:21:11.303Z,8.82
2023-03-17T19:23:40.174Z,7.47
2023-03-17T19:26:09.112Z,11.38
2023-03-17T19:28:37.600Z,9.60
2023-03-17T19:31:07.858Z,11.10
2023-03-17T19:33:36.470Z,10.77
2023-03-17T19:36:11.058Z,12.80
2023-03-17T19:38:39.525Z,12.35
2023-03-17T19:41:08.191Z,12.57
2023-03-17T19:43:41.109Z,14.02
2023-03-17T19:46:12.401Z,14.70
2023-03-17T19:48:41.078Z,13.85
2023-03-17T19:51:09.412Z,20.27
2023-03-17T19:53:38.417Z,16.00
2023-03-17T19:56:07.562Z,16.33
2023-03-17T19:58:36.098Z,20.33
2023-03-17T20:01:05.158Z,23.98
2023-03-17T20:03:36.332Z,20.38
2023-03-17T20:06:06.435Z,22.17
2023-03-17T20:08:35.679Z,25.83
2023-03-17T20:11:05.616Z,20.17
2023-03-17T20:13:34.630Z,24.83
2023-03-17T20:16:03.870Z,20.40
2023-03-17T20:18:32.675Z,23.88
2023-03-17T20:21:05.669Z,26.27
2023-03-17T20:23:35.495Z,22.92
2023-03-17T20:26:03.790Z,23.75
2023-03-17T20:28:32.601Z,24.73
2023-03-17T20:31:03.087Z,22.35
2023-03-17T20:33:33.339Z,25.88
2023-03-17T20:36:04.804Z,23.40
2023-03-17T20:38:36.922Z,23.15
2023-03-17T20:41:10.484Z,22.17
2023-03-17T20:43:38.966Z,19.50
2023-03-17T20:46:09.273Z,22.38
2023-03-17T20:48:38.318Z,17.65
2023-03-17T20:51:10.191Z,17.55
2023-03-17T20:53:38.922Z,14.68
2023-03-17T20:56:08.570Z,14.48
2023-03-17T20:58:37.037Z,14.23
2023-03-17T21:01:05.583Z,14.73
2023-03-17T21:03:33.856Z,13.07
2023-03-17T21:06:02.134Z,15.27
2023-03-17T21:08:31.877Z,14.43
2023-03-17T21:11:00.108Z,12.35
2023-03-17T21:13:28.550Z,15.25
2023-03-17T21:15:57.193Z,14.70
2023-03-17T21:18:25.605Z,13.57
2023-03-17T21:20:54.218Z,16.48
2023-03-17T21:23:22.981Z,17.70
2023-03-17T21:25:56.942Z,14.05
2023-03-17T21:28:25.298Z,15.77
2023-03-17T21:30:53.750Z,15.93
2023-03-17T21:33:22.090Z,13.90
2023-03-17T21:35:52.263Z,15.77
2023-03-17T21:38:20.612Z,16.35
2023-03-17T21:40:49.338Z,15.20
2023-03-17T21:43:18.990Z,14.85
2023-03-17T21:45:47.305Z,16.17
2023-03-17T21:48:15.704Z,17.70
2023-03-17T21:50:43.999Z,12.50
2023-03-17T21:53:14.951Z,15.20
2023-03-17T21:55:44.029Z,14.05
2023-03-17T21:58:12.464Z,16.50
2023-03-17T22:00:45.568Z,13.75
2023-03-17T22:03:14.677Z,15.93
2023-03-17T22:05:44.119Z,16.58
2023-03-17T22:08:12.400Z,17.20
2023-03-17T22:10:41.057Z,16.30
2023-03-17T22:13:09.386Z,18.65
2023-03-17T22:15:37.850Z,16.00
2023-03-17T22:18:07.611Z,12.07
2023-03-17T22:20:36.370Z,14.95
2023-03-17T22:23:04.850Z,17.42
2023-03-17T22:25:33.056Z,14.48
2023-03-17T22:28:01.321Z,12.50
2023-03-17T22:30:29.593Z,13.48
2023-03-17T22:32:57.956Z,13.38
2023-03-17T22:35:27.630Z,13.38
2023-03-17T22:37:56.505Z,15.35
2023-03-17T22:40:24.906Z,14.55
2023-03-17T22:42:56.141Z,14.20
2023-03-17T22:45:24.793Z,15.52
2023-03-17T22:47:54.230Z,16.13
2023-03-17T22:50:22.860Z,11.20
2023-03-17T22:52:52.679Z,12.50
2023-03-17T22:55:21.039Z,11.32
2023-03-17T22:57:49.338Z,12.57
2023-03-17T23:00:18.281Z,13.32
2023-03-17T23:02:47.417Z,13.07
2023-03-17T23:05:16.067Z,12.90
2023-03-17T23:07:50.634Z,10.73
2023-03-17T23:10:24.509Z,12.32
2023-03-17T23:12:53.888Z,9.68
2023-03-17T23:15:22.690Z,10.10
2023-03-17T23:17:51.956Z,12.32
2023-03-17T23:20:20.446Z,9.93
2023-03-17T23:22:49.021Z,10.90
2023-03-17T23:25:17.367Z,12.00
2023-03-17T23:27:48.043Z,14.48
2023-03-17T23:30:17.963Z,10.67
2023-03-17T23:32:46.849Z,11.02
2023-03-17T23:35:16.171Z,12.32
2023-03-17T23:37:44.647Z,11.07
2023-03-17T23:40:15.627Z,10.48
2023-03-17T23:42:44.278Z,9.73
2023-03-17T23:45:15.421Z,10.32
2023-03-17T23:47:44.028Z,11.35
2023-03-17T23:50:14.414Z,8.73
2023-03-17T23:52:43.248Z,10.70
2023-03-17T23:55:13.277Z,11.00
2023-03-17T23:57:41.575Z,11.10
